sensor_id;sensor_type;location;lat;lon;timestamp;P1;durP1;ratioP1;P2;durP2;ratioP2
16031;SDS011;8120;48.308;8.914;2022-08-19T00:01:38;25.67;;;21.27;;
16031;SDS011;8120;48.308;8.914;2022-08-19T00:04:09;25.13;;;21.33;;
16031;SDS011;8120;48.308;8.914;2022-08-19T00:06:39;26.40;;;22.03;;
16031;SDS011;8120;48.308;8.914;2022-08-19T00:09:11;25.10;;;21.53;;
16031;SDS011;8120;48.308;8.914;2022-08-19T00:11:40;26.10;;;22.07;;
16031;SDS011;8120;48.308;8.914;2022-08-19T00:14:11;26.10;;;20.97;;
16031;SDS011;8120;48.308;8.914;2022-08-19T00:16:41;27.30;;;22.47;;
16031;SDS011;8120;48.308;8.914;2022-08-19T00:19:11;28.53;;;21.80;;
16031;SDS011;8120;48.308;8.914;2022-08-19T00:21:39;23.70;;;20.53;;
16031;SDS011;8120;48.308;8.914;2022-08-19T00:24:08;26.40;;;22.37;;
16031;SDS011;8120;48.308;8.914;2022-08-19T00:26:37;26.53;;;21.63;;
16031;SDS011;8120;48.308;8.914;2022-08-19T00:29:05;25.47;;;21.23;;
16031;SDS011;8120;48.308;8.914;2022-08-19T00:31:36;25.37;;;21.93;;
16031;SDS011;8120;48.308;8.914;2022-08-19T00:34:04;28.83;;;23.80;;
16031;SDS011;8120;48.308;8.914;2022-08-19T00:36:31;27.47;;;23.17;;
16031;SDS011;8120;48.308;8.914;2022-08-19T00:38:59;28.77;;;22.10;;
16031;SDS011;8120;48.308;8.914;2022-08-19T00:41:28;27.57;;;23.30;;
16031;SDS011;8120;48.308;8.914;2022-08-19T00:43:57;26.47;;;22.00;;
16031;SDS011;8120;48.308;8.914;2022-08-19T00:46:27;27.80;;;23.87;;
16031;SDS011;8120;48.308;8.914;2022-08-19T00:48:56;29.83;;;24.70;;
16031;SDS011;8120;48.308;8.914;2022-08-19T00:51:25;27.90;;;23.07;;
16031;SDS011;8120;48.308;8.914;2022-08-19T00:53:59;26.00;;;23.20;;
16031;SDS011;8120;48.308;8.914;2022-08-19T00:56:28;29.63;;;23.53;;
16031;SDS011;8120;48.308;8.914;2022-08-19T00:58:58;30.07;;;23.77;;
16031;SDS011;8120;48.308;8.914;2022-08-19T01:01:27;29.00;;;24.00;;
16031;SDS011;8120;48.308;8.914;2022-08-19T01:03:57;28.53;;;23.03;;
16031;SDS011;8120;48.308;8.914;2022-08-19T01:06:25;25.23;;;21.33;;
16031;SDS011;8120;48.308;8.914;2022-08-19T01:08:53;24.83;;;20.97;;
16031;SDS011;8120;48.308;8.914;2022-08-19T01:11:22;25.73;;;21.33;;
16031;SDS011;8120;48.308;8.914;2022-08-19T01:13:50;26.40;;;22.03;;
16031;SDS011;8120;48.308;8.914;2022-08-19T01:16:19;24.20;;;20.63;;
16031;SDS011;8120;48.308;8.914;2022-08-19T01:18:49;24.33;;;21.43;;
16031;SDS011;8120;48.308;8.914;2022-08-19T01:21:20;28.27;;;20.33;;
16031;SDS011;8120;48.308;8.914;2022-08-19T01:23:54;25.33;;;20.93;;
16031;SDS011;8120;48.308;8.914;2022-08-19T01:26:23;26.43;;;21.73;;
16031;SDS011;8120;48.308;8.914;2022-08-19T01:28:53;24.30;;;20.00;;
16031;SDS011;8120;48.308;8.914;2022-08-19T01:31:27;24.13;;;20.20;;
16031;SDS011;8120;48.308;8.914;2022-08-19T01:33:58;22.63;;;19.33;;
16031;SDS011;8120;48.308;8.914;2022-08-19T01:36:28;24.40;;;20.10;;
16031;SDS011;8120;48.308;8.914;2022-08-19T01:38:59;24.10;;;19.80;;
16031;SDS011;8120;48.308;8.914;2022-08-19T01:41:32;22.57;;;19.07;;
16031;SDS011;8120;48.308;8.914;2022-08-19T01:44:00;24.20;;;19.83;;
16031;SDS011;8120;48.308;8.914;2022-08-19T01:46:44;24.10;;;19.83;;
16031;SDS011;8120;48.308;8.914;2022-08-19T01:49:14;23.53;;;19.80;;
16031;SDS011;8120;48.308;8.914;2022-08-19T01:51:43;21.87;;;18.80;;
16031;SDS011;8120;48.308;8.914;2022-08-19T01:54:13;23.73;;;18.93;;
16031;SDS011;8120;48.308;8.914;2022-08-19T01:56:53;21.97;;;19.60;;
16031;SDS011;8120;48.308;8.914;2022-08-19T01:59:24;22.63;;;18.70;;
16031;SDS011;8120;48.308;8.914;2022-08-19T02:01:52;23.03;;;19.47;;
16031;SDS011;8120;48.308;8.914;2022-08-19T02:04:21;23.10;;;19.20;;
16031;SDS011;8120;48.308;8.914;2022-08-19T02:06:49;23.60;;;18.67;;
16031;SDS011;8120;48.308;8.914;2022-08-19T02:09:18;21.30;;;18.20;;
16031;SDS011;8120;48.308;8.914;2022-08-19T02:11:46;21.47;;;17.93;;
16031;SDS011;8120;48.308;8.914;2022-08-19T02:14:14;20.70;;;18.47;;
16031;SDS011;8120;48.308;8.914;2022-08-19T02:16:42;22.37;;;17.87;;
16031;SDS011;8120;48.308;8.914;2022-08-19T02:19:10;21.53;;;17.63;;
16031;SDS011;8120;48.308;8.914;2022-08-19T02:21:38;23.13;;;19.53;;
16031;SDS011;8120;48.308;8.914;2022-08-19T02:24:06;22.13;;;18.70;;
16031;SDS011;8120;48.308;8.914;2022-08-19T02:26:35;22.50;;;17.13;;
16031;SDS011;8120;48.308;8.914;2022-08-19T02:29:03;22.27;;;18.33;;
16031;SDS011;8120;48.308;8.914;2022-08-19T02:31:31;23.53;;;18.40;;
16031;SDS011;8120;48.308;8.914;2022-08-19T02:33:59;23.73;;;18.90;;
16031;SDS011;8120;48.308;8.914;2022-08-19T02:36:27;21.07;;;17.77;;
16031;SDS011;8120;48.308;8.914;2022-08-19T02:38:56;22.27;;;18.63;;
16031;SDS011;8120;48.308;8.914;2022-08-19T02:41:24;22.23;;;18.47;;
16031;SDS011;8120;48.308;8.914;2022-08-19T02:43:55;24.33;;;18.97;;
16031;SDS011;8120;48.308;8.914;2022-08-19T02:46:45;21.73;;;18.07;;
16031;SDS011;8120;48.308;8.914;2022-08-19T02:49:17;22.40;;;17.93;;
16031;SDS011;8120;48.308;8.914;2022-08-19T02:51:46;24.37;;;19.37;;
16031;SDS011;8120;48.308;8.914;2022-08-19T02:54:14;24.50;;;19.13;;
16031;SDS011;8120;48.308;8.914;2022-08-19T02:56:43;25.27;;;19.97;;
16031;SDS011;8120;48.308;8.914;2022-08-19T02:59:13;21.97;;;17.27;;
16031;SDS011;8120;48.308;8.914;2022-08-19T03:01:41;23.47;;;18.23;;
16031;SDS011;8120;48.308;8.914;2022-08-19T03:04:09;22.47;;;18.30;;
16031;SDS011;8120;48.308;8.914;2022-08-19T03:06:39;24.57;;;20.27;;
16031;SDS011;8120;48.308;8.914;2022-08-19T03:09:09;23.27;;;18.20;;
16031;SDS011;8120;48.308;8.914;2022-08-19T03:11:38;23.87;;;18.97;;
16031;SDS011;8120;48.308;8.914;2022-08-19T03:14:07;20.73;;;16.87;;
16031;SDS011;8120;48.308;8.914;2022-08-19T03:16:43;27.80;;;18.60;;
16031;SDS011;8120;48.308;8.914;2022-08-19T03:19:12;25.27;;;18.87;;
16031;SDS011;8120;48.308;8.914;2022-08-19T03:21:42;23.63;;;19.90;;
16031;SDS011;8120;48.308;8.914;2022-08-19T03:24:12;27.07;;;19.50;;
16031;SDS011;8120;48.308;8.914;2022-08-19T03:26:41;24.43;;;19.53;;
16031;SDS011;8120;48.308;8.914;2022-08-19T03:29:10;24.10;;;18.90;;
16031;SDS011;8120;48.308;8.914;2022-08-19T03:31:39;24.00;;;18.83;;
16031;SDS011;8120;48.308;8.914;2022-08-19T03:34:19;25.30;;;19.53;;
16031;SDS011;8120;48.308;8.914;2022-08-19T03:36:49;25.33;;;19.77;;
16031;SDS011;8120;48.308;8.914;2022-08-19T03:39:17;23.60;;;19.43;;
16031;SDS011;8120;48.308;8.914;2022-08-19T03:41:45;23.97;;;19.17;;
16031;SDS011;8120;48.308;8.914;2022-08-19T03:44:35;25.13;;;19.43;;
16031;SDS011;8120;48.308;8.914;2022-08-19T03:47:05;24.90;;;19.27;;
16031;SDS011;8120;48.308;8.914;2022-08-19T03:49:33;26.90;;;18.90;;
16031;SDS011;8120;48.308;8.914;2022-08-19T03:52:02;29.23;;;19.70;;
16031;SDS011;8120;48.308;8.914;2022-08-19T03:54:34;24.53;;;18.83;;
16031;SDS011;8120;48.308;8.914;2022-08-19T03:57:02;26.93;;;20.97;;
16031;SDS011;8120;48.308;8.914;2022-08-19T03:59:31;24.27;;;19.30;;
16031;SDS011;8120;48.308;8.914;2022-08-19T04:02:01;24.43;;;19.33;;
16031;SDS011;8120;48.308;8.914;2022-08-19T04:04:35;27.17;;;20.60;;
16031;SDS011;8120;48.308;8.914;2022-08-19T04:07:04;24.33;;;18.87;;
16031;SDS011;8120;48.308;8.914;2022-08-19T04:09:33;26.33;;;19.20;;
16031;SDS011;8120;48.308;8.914;2022-08-19T04:12:02;26.07;;;20.17;;
16031;SDS011;8120;48.308;8.914;2022-08-19T04:14:32;23.63;;;18.90;;
16031;SDS011;8120;48.308;8.914;2022-08-19T04:17:01;25.13;;;19.33;;
16031;SDS011;8120;48.308;8.914;2022-08-19T04:19:31;23.10;;;19.47;;
16031;SDS011;8120;48.308;8.914;2022-08-19T04:22:01;25.63;;;19.97;;
16031;SDS011;8120;48.308;8.914;2022-08-19T04:24:30;27.20;;;20.90;;
16031;SDS011;8120;48.308;8.914;2022-08-19T04:26:58;25.73;;;20.13;;
16031;SDS011;8120;48.308;8.914;2022-08-19T04:29:27;27.57;;;21.13;;
16031;SDS011;8120;48.308;8.914;2022-08-19T04:31:56;24.63;;;19.43;;
16031;SDS011;8120;48.308;8.914;2022-08-19T04:34:34;27.23;;;20.70;;
16031;SDS011;8120;48.308;8.914;2022-08-19T04:37:24;27.40;;;20.27;;
16031;SDS011;8120;48.308;8.914;2022-08-19T04:40:00;27.33;;;21.17;;
16031;SDS011;8120;48.308;8.914;2022-08-19T04:42:48;28.10;;;21.00;;
16031;SDS011;8120;48.308;8.914;2022-08-19T04:45:16;26.70;;;21.30;;
16031;SDS011;8120;48.308;8.914;2022-08-19T04:47:48;25.47;;;20.20;;
16031;SDS011;8120;48.308;8.914;2022-08-19T04:50:35;28.77;;;20.53;;
16031;SDS011;8120;48.308;8.914;2022-08-19T04:53:05;31.40;;;21.73;;
16031;SDS011;8120;48.308;8.914;2022-08-19T04:55:33;27.07;;;20.60;;
16031;SDS011;8120;48.308;8.914;2022-08-19T04:58:03;27.20;;;21.13;;
16031;SDS011;8120;48.308;8.914;2022-08-19T05:00:31;27.57;;;19.97;;
16031;SDS011;8120;48.308;8.914;2022-08-19T05:03:03;28.10;;;20.97;;
16031;SDS011;8120;48.308;8.914;2022-08-19T05:05:33;26.27;;;19.90;;
16031;SDS011;8120;48.308;8.914;2022-08-19T05:08:11;26.53;;;21.17;;
16031;SDS011;8120;48.308;8.914;2022-08-19T05:10:56;24.60;;;19.27;;
16031;SDS011;8120;48.308;8.914;2022-08-19T05:13:24;27.33;;;19.70;;
16031;SDS011;8120;48.308;8.914;2022-08-19T05:15:53;28.50;;;21.00;;
16031;SDS011;8120;48.308;8.914;2022-08-19T05:18:22;28.47;;;20.43;;
16031;SDS011;8120;48.308;8.914;2022-08-19T05:21:22;25.43;;;19.80;;
16031;SDS011;8120;48.308;8.914;2022-08-19T05:24:11;24.33;;;19.83;;
16031;SDS011;8120;48.308;8.914;2022-08-19T05:26:41;27.43;;;20.17;;
16031;SDS011;8120;48.308;8.914;2022-08-19T05:29:12;28.93;;;21.17;;
16031;SDS011;8120;48.308;8.914;2022-08-19T05:31:41;27.40;;;19.73;;
16031;SDS011;8120;48.308;8.914;2022-08-19T05:34:09;28.13;;;20.80;;
16031;SDS011;8120;48.308;8.914;2022-08-19T05:36:45;28.03;;;21.10;;
16031;SDS011;8120;48.308;8.914;2022-08-19T05:39:16;24.73;;;20.70;;
16031;SDS011;8120;48.308;8.914;2022-08-19T05:41:46;28.00;;;20.57;;
16031;SDS011;8120;48.308;8.914;2022-08-19T05:44:16;26.97;;;20.77;;
16031;SDS011;8120;48.308;8.914;2022-08-19T05:46:44;25.17;;;19.67;;
16031;SDS011;8120;48.308;8.914;2022-08-19T05:49:13;28.40;;;21.87;;
16031;SDS011;8120;48.308;8.914;2022-08-19T05:51:42;25.80;;;20.03;;
16031;SDS011;8120;48.308;8.914;2022-08-19T05:54:10;26.50;;;19.60;;
16031;SDS011;8120;48.308;8.914;2022-08-19T05:56:41;28.23;;;20.53;;
16031;SDS011;8120;48.308;8.914;2022-08-19T05:59:10;28.00;;;19.37;;
16031;SDS011;8120;48.308;8.914;2022-08-19T06:01:39;30.23;;;21.57;;
16031;SDS011;8120;48.308;8.914;2022-08-19T06:04:08;25.43;;;19.53;;
16031;SDS011;8120;48.308;8.914;2022-08-19T06:06:36;28.10;;;20.77;;
16031;SDS011;8120;48.308;8.914;2022-08-19T06:09:04;27.07;;;20.67;;
16031;SDS011;8120;48.308;8.914;2022-08-19T06:11:34;28.03;;;21.63;;
16031;SDS011;8120;48.308;8.914;2022-08-19T06:14:06;24.70;;;18.87;;
16031;SDS011;8120;48.308;8.914;2022-08-19T06:16:42;29.43;;;21.23;;
16031;SDS011;8120;48.308;8.914;2022-08-19T06:19:13;27.87;;;21.57;;
16031;SDS011;8120;48.308;8.914;2022-08-19T06:21:43;29.10;;;21.13;;
16031;SDS011;8120;48.308;8.914;2022-08-19T06:24:14;29.70;;;21.40;;
16031;SDS011;8120;48.308;8.914;2022-08-19T06:26:45;30.10;;;21.57;;
16031;SDS011;8120;48.308;8.914;2022-08-19T06:29:21;28.03;;;22.03;;
16031;SDS011;8120;48.308;8.914;2022-08-19T06:31:51;29.93;;;22.00;;
16031;SDS011;8120;48.308;8.914;2022-08-19T06:34:21;26.13;;;21.03;;
16031;SDS011;8120;48.308;8.914;2022-08-19T06:36:50;28.67;;;21.20;;
16031;SDS011;8120;48.308;8.914;2022-08-19T06:39:20;33.17;;;23.37;;
16031;SDS011;8120;48.308;8.914;2022-08-19T06:41:52;27.57;;;21.57;;
16031;SDS011;8120;48.308;8.914;2022-08-19T06:44:26;34.63;;;26.93;;
16031;SDS011;8120;48.308;8.914;2022-08-19T06:46:57;25.80;;;20.33;;
16031;SDS011;8120;48.308;8.914;2022-08-19T06:49:25;28.50;;;21.90;;
16031;SDS011;8120;48.308;8.914;2022-08-19T06:51:58;27.47;;;21.30;;
16031;SDS011;8120;48.308;8.914;2022-08-19T06:54:27;30.30;;;21.27;;
16031;SDS011;8120;48.308;8.914;2022-08-19T06:56:56;29.50;;;21.07;;
16031;SDS011;8120;48.308;8.914;2022-08-19T06:59:29;27.40;;;21.73;;
16031;SDS011;8120;48.308;8.914;2022-08-19T07:02:00;26.67;;;21.10;;
16031;SDS011;8120;48.308;8.914;2022-08-19T07:04:31;29.10;;;22.50;;
16031;SDS011;8120;48.308;8.914;2022-08-19T07:07:02;28.60;;;22.07;;
16031;SDS011;8120;48.308;8.914;2022-08-19T07:09:47;28.70;;;22.03;;
16031;SDS011;8120;48.308;8.914;2022-08-19T07:12:26;30.03;;;22.77;;
16031;SDS011;8120;48.308;8.914;2022-08-19T07:14:58;32.83;;;22.20;;
16031;SDS011;8120;48.308;8.914;2022-08-19T07:17:26;30.17;;;21.03;;
16031;SDS011;8120;48.308;8.914;2022-08-19T07:19:56;27.93;;;20.93;;
16031;SDS011;8120;48.308;8.914;2022-08-19T07:22:30;30.53;;;21.33;;
16031;SDS011;8120;48.308;8.914;2022-08-19T07:24:59;30.70;;;22.37;;
16031;SDS011;8120;48.308;8.914;2022-08-19T07:27:29;28.57;;;21.67;;
16031;SDS011;8120;48.308;8.914;2022-08-19T07:30:00;27.27;;;21.27;;
16031;SDS011;8120;48.308;8.914;2022-08-19T07:32:28;28.87;;;22.60;;
16031;SDS011;8120;48.308;8.914;2022-08-19T07:34:57;29.70;;;22.13;;
16031;SDS011;8120;48.308;8.914;2022-08-19T07:37:26;26.40;;;21.00;;
16031;SDS011;8120;48.308;8.914;2022-08-19T07:39:58;26.83;;;21.87;;
16031;SDS011;8120;48.308;8.914;2022-08-19T07:42:27;29.50;;;22.93;;
16031;SDS011;8120;48.308;8.914;2022-08-19T07:44:55;31.67;;;24.50;;
16031;SDS011;8120;48.308;8.914;2022-08-19T07:47:25;30.90;;;23.87;;
16031;SDS011;8120;48.308;8.914;2022-08-19T07:50:14;29.27;;;23.27;;
16031;SDS011;8120;48.308;8.914;2022-08-19T07:52:44;30.30;;;22.43;;
16031;SDS011;8120;48.308;8.914;2022-08-19T07:55:14;29.83;;;23.30;;
16031;SDS011;8120;48.308;8.914;2022-08-19T07:58:04;30.07;;;22.70;;
16031;SDS011;8120;48.308;8.914;2022-08-19T08:00:32;31.60;;;23.40;;
16031;SDS011;8120;48.308;8.914;2022-08-19T08:03:02;32.80;;;25.53;;
16031;SDS011;8120;48.308;8.914;2022-08-19T08:05:30;31.57;;;23.37;;
16031;SDS011;8120;48.308;8.914;2022-08-19T08:08:16;36.97;;;26.23;;
16031;SDS011;8120;48.308;8.914;2022-08-19T08:11:13;31.17;;;24.70;;
16031;SDS011;8120;48.308;8.914;2022-08-19T08:13:45;50.70;;;39.87;;
16031;SDS011;8120;48.308;8.914;2022-08-19T08:16:29;38.50;;;30.63;;
16031;SDS011;8120;48.308;8.914;2022-08-19T08:19:02;79.47;;;58.47;;
16031;SDS011;8120;48.308;8.914;2022-08-19T08:21:46;37.83;;;28.47;;
16031;SDS011;8120;48.308;8.914;2022-08-19T08:24:15;46.90;;;34.13;;
16031;SDS011;8120;48.308;8.914;2022-08-19T08:26:43;40.23;;;29.57;;
16031;SDS011;8120;48.308;8.914;2022-08-19T08:29:17;34.00;;;26.17;;
16031;SDS011;8120;48.308;8.914;2022-08-19T08:31:46;31.73;;;25.33;;
16031;SDS011;8120;48.308;8.914;2022-08-19T08:34:26;31.10;;;24.10;;
16031;SDS011;8120;48.308;8.914;2022-08-19T08:36:54;31.83;;;25.27;;
16031;SDS011;8120;48.308;8.914;2022-08-19T08:39:22;31.77;;;25.13;;
16031;SDS011;8120;48.308;8.914;2022-08-19T08:41:51;30.90;;;23.50;;
16031;SDS011;8120;48.308;8.914;2022-08-19T08:44:27;32.50;;;24.23;;
16031;SDS011;8120;48.308;8.914;2022-08-19T08:47:01;32.70;;;26.10;;
16031;SDS011;8120;48.308;8.914;2022-08-19T08:49:36;30.40;;;23.63;;
16031;SDS011;8120;48.308;8.914;2022-08-19T08:52:18;29.53;;;23.90;;
16031;SDS011;8120;48.308;8.914;2022-08-19T08:54:59;30.87;;;25.00;;
16031;SDS011;8120;48.308;8.914;2022-08-19T08:57:36;32.90;;;25.10;;
16031;SDS011;8120;48.308;8.914;2022-08-19T09:00:09;32.10;;;24.33;;
16031;SDS011;8120;48.308;8.914;2022-08-19T09:02:41;31.83;;;25.43;;
16031;SDS011;8120;48.308;8.914;2022-08-19T09:05:10;31.97;;;24.33;;
16031;SDS011;8120;48.308;8.914;2022-08-19T09:07:46;34.20;;;25.03;;
16031;SDS011;8120;48.308;8.914;2022-08-19T09:10:22;34.83;;;26.27;;
16031;SDS011;8120;48.308;8.914;2022-08-19T09:12:57;29.73;;;24.37;;
16031;SDS011;8120;48.308;8.914;2022-08-19T09:15:36;33.57;;;25.47;;
16031;SDS011;8120;48.308;8.914;2022-08-19T09:18:08;33.70;;;25.10;;
16031;SDS011;8120;48.308;8.914;2022-08-19T09:20:46;31.03;;;25.00;;
16031;SDS011;8120;48.308;8.914;2022-08-19T09:23:15;32.50;;;24.77;;
16031;SDS011;8120;48.308;8.914;2022-08-19T09:25:52;31.77;;;24.07;;
16031;SDS011;8120;48.308;8.914;2022-08-19T09:28:19;28.30;;;23.30;;
16031;SDS011;8120;48.308;8.914;2022-08-19T09:30:52;29.03;;;23.63;;
16031;SDS011;8120;48.308;8.914;2022-08-19T09:33:20;32.67;;;24.97;;
16031;SDS011;8120;48.308;8.914;2022-08-19T09:35:49;33.40;;;24.43;;
16031;SDS011;8120;48.308;8.914;2022-08-19T09:38:19;33.90;;;24.90;;
16031;SDS011;8120;48.308;8.914;2022-08-19T09:40:47;29.07;;;23.73;;
16031;SDS011;8120;48.308;8.914;2022-08-19T09:43:16;29.87;;;23.70;;
16031;SDS011;8120;48.308;8.914;2022-08-19T09:45:59;34.73;;;24.87;;
16031;SDS011;8120;48.308;8.914;2022-08-19T09:48:27;31.90;;;24.40;;
16031;SDS011;8120;48.308;8.914;2022-08-19T09:51:02;32.37;;;23.87;;
16031;SDS011;8120;48.308;8.914;2022-08-19T09:53:31;33.97;;;24.90;;
16031;SDS011;8120;48.308;8.914;2022-08-19T09:56:02;32.27;;;24.43;;
16031;SDS011;8120;48.308;8.914;2022-08-19T09:58:35;31.37;;;24.77;;
16031;SDS011;8120;48.308;8.914;2022-08-19T10:01:03;31.90;;;25.33;;
16031;SDS011;8120;48.308;8.914;2022-08-19T10:07:21;30.27;;;23.17;;
16031;SDS011;8120;48.308;8.914;2022-08-19T10:10:02;31.97;;;23.43;;
16031;SDS011;8120;48.308;8.914;2022-08-19T10:12:32;32.10;;;24.00;;
16031;SDS011;8120;48.308;8.914;2022-08-19T10:15:01;30.93;;;24.67;;
16031;SDS011;8120;48.308;8.914;2022-08-19T10:17:30;31.47;;;24.97;;
16031;SDS011;8120;48.308;8.914;2022-08-19T10:19:59;32.57;;;23.83;;
16031;SDS011;8120;48.308;8.914;2022-08-19T10:22:30;32.63;;;24.83;;
16031;SDS011;8120;48.308;8.914;2022-08-19T10:24:58;29.53;;;23.43;;
16031;SDS011;8120;48.308;8.914;2022-08-19T10:27:27;29.67;;;23.23;;
16031;SDS011;8120;48.308;8.914;2022-08-19T10:29:57;32.93;;;24.03;;
16031;SDS011;8120;48.308;8.914;2022-08-19T10:32:26;28.03;;;22.97;;
16031;SDS011;8120;48.308;8.914;2022-08-19T10:34:59;27.93;;;21.67;;
16031;SDS011;8120;48.308;8.914;2022-08-19T10:37:32;23.73;;;19.37;;
16031;SDS011;8120;48.308;8.914;2022-08-19T10:40:00;24.73;;;20.33;;
16031;SDS011;8120;48.308;8.914;2022-08-19T10:42:29;25.03;;;20.67;;
16031;SDS011;8120;48.308;8.914;2022-08-19T10:44:57;27.67;;;21.63;;
16031;SDS011;8120;48.308;8.914;2022-08-19T10:47:26;25.07;;;20.77;;
16031;SDS011;8120;48.308;8.914;2022-08-19T10:49:57;27.37;;;20.43;;
16031;SDS011;8120;48.308;8.914;2022-08-19T10:52:45;25.33;;;21.13;;
16031;SDS011;8120;48.308;8.914;2022-08-19T10:55:16;25.90;;;20.73;;
16031;SDS011;8120;48.308;8.914;2022-08-19T10:58:03;27.53;;;21.93;;
16031;SDS011;8120;48.308;8.914;2022-08-19T11:00:34;26.97;;;21.50;;
16031;SDS011;8120;48.308;8.914;2022-08-19T11:03:02;22.90;;;19.30;;
16031;SDS011;8120;48.308;8.914;2022-08-19T11:05:30;26.40;;;20.00;;
16031;SDS011;8120;48.308;8.914;2022-08-19T11:08:06;24.97;;;19.50;;
16031;SDS011;8120;48.308;8.914;2022-08-19T11:10:48;24.37;;;18.97;;
16031;SDS011;8120;48.308;8.914;2022-08-19T11:13:16;22.63;;;19.80;;
16031;SDS011;8120;48.308;8.914;2022-08-19T11:15:44;21.73;;;19.43;;
16031;SDS011;8120;48.308;8.914;2022-08-19T11:18:13;23.80;;;20.20;;
16031;SDS011;8120;48.308;8.914;2022-08-19T11:20:43;21.97;;;19.17;;
16031;SDS011;8120;48.308;8.914;2022-08-19T11:23:12;23.43;;;19.67;;
16031;SDS011;8120;48.308;8.914;2022-08-19T11:25:40;21.30;;;18.60;;
16031;SDS011;8120;48.308;8.914;2022-08-19T11:28:07;22.67;;;18.63;;
16031;SDS011;8120;48.308;8.914;2022-08-19T11:30:36;22.93;;;18.53;;
16031;SDS011;8120;48.308;8.914;2022-08-19T11:33:04;21.97;;;18.33;;
16031;SDS011;8120;48.308;8.914;2022-08-19T11:35:32;20.60;;;17.27;;
16031;SDS011;8120;48.308;8.914;2022-08-19T11:38:00;22.40;;;18.53;;
16031;SDS011;8120;48.308;8.914;2022-08-19T11:40:34;23.93;;;18.70;;
16031;SDS011;8120;48.308;8.914;2022-08-19T11:43:02;22.27;;;17.90;;
16031;SDS011;8120;48.308;8.914;2022-08-19T11:45:30;19.80;;;16.40;;
16031;SDS011;8120;48.308;8.914;2022-08-19T11:47:58;19.57;;;17.47;;
16031;SDS011;8120;48.308;8.914;2022-08-19T11:50:26;20.33;;;16.97;;
16031;SDS011;8120;48.308;8.914;2022-08-19T11:52:55;20.97;;;17.00;;
16031;SDS011;8120;48.308;8.914;2022-08-19T11:55:23;19.97;;;17.23;;
16031;SDS011;8120;48.308;8.914;2022-08-19T11:57:52;19.53;;;17.37;;
16031;SDS011;8120;48.308;8.914;2022-08-19T12:00:21;24.03;;;17.43;;
16031;SDS011;8120;48.308;8.914;2022-08-19T12:02:49;20.23;;;16.30;;
16031;SDS011;8120;48.308;8.914;2022-08-19T12:05:16;21.83;;;17.63;;
16031;SDS011;8120;48.308;8.914;2022-08-19T12:07:44;20.63;;;17.70;;
16031;SDS011;8120;48.308;8.914;2022-08-19T12:10:12;18.40;;;16.20;;
16031;SDS011;8120;48.308;8.914;2022-08-19T12:12:44;18.80;;;16.70;;
16031;SDS011;8120;48.308;8.914;2022-08-19T12:15:25;21.20;;;17.77;;
16031;SDS011;8120;48.308;8.914;2022-08-19T12:18:02;23.73;;;19.00;;
16031;SDS011;8120;48.308;8.914;2022-08-19T12:20:33;23.40;;;19.40;;
16031;SDS011;8120;48.308;8.914;2022-08-19T12:30:09;25.20;;;20.50;;
16031;SDS011;8120;48.308;8.914;2022-08-19T12:32:40;25.20;;;21.20;;
16031;SDS011;8120;48.308;8.914;2022-08-19T12:35:08;25.80;;;21.70;;
16031;SDS011;8120;48.308;8.914;2022-08-19T12:37:37;28.70;;;23.33;;
16031;SDS011;8120;48.308;8.914;2022-08-19T12:40:21;25.63;;;21.80;;
16031;SDS011;8120;48.308;8.914;2022-08-19T12:42:52;25.23;;;21.60;;
16031;SDS011;8120;48.308;8.914;2022-08-19T12:45:20;26.33;;;21.00;;
16031;SDS011;8120;48.308;8.914;2022-08-19T12:47:50;27.00;;;20.97;;
16031;SDS011;8120;48.308;8.914;2022-08-19T12:50:20;27.23;;;22.97;;
16031;SDS011;8120;48.308;8.914;2022-08-19T12:52:48;25.60;;;21.20;;
16031;SDS011;8120;48.308;8.914;2022-08-19T12:55:16;28.27;;;21.70;;
16031;SDS011;8120;48.308;8.914;2022-08-19T12:57:45;23.43;;;20.83;;
16031;SDS011;8120;48.308;8.914;2022-08-19T13:00:15;28.30;;;22.63;;
16031;SDS011;8120;48.308;8.914;2022-08-19T13:02:47;25.50;;;20.13;;
16031;SDS011;8120;48.308;8.914;2022-08-19T13:05:19;23.33;;;19.77;;
16031;SDS011;8120;48.308;8.914;2022-08-19T13:07:50;24.47;;;20.40;;
16031;SDS011;8120;48.308;8.914;2022-08-19T13:10:28;23.73;;;19.93;;
16031;SDS011;8120;48.308;8.914;2022-08-19T13:13:01;24.23;;;20.17;;
16031;SDS011;8120;48.308;8.914;2022-08-19T13:15:32;23.67;;;21.17;;
16031;SDS011;8120;48.308;8.914;2022-08-19T13:18:02;26.60;;;22.67;;
16031;SDS011;8120;48.308;8.914;2022-08-19T13:20:30;26.03;;;22.27;;
16031;SDS011;8120;48.308;8.914;2022-08-19T13:22:58;25.27;;;22.30;;
16031;SDS011;8120;48.308;8.914;2022-08-19T13:25:26;29.07;;;23.83;;
16031;SDS011;8120;48.308;8.914;2022-08-19T13:27:54;28.63;;;24.73;;
16031;SDS011;8120;48.308;8.914;2022-08-19T13:30:22;28.70;;;23.77;;
16031;SDS011;8120;48.308;8.914;2022-08-19T13:33:09;29.00;;;24.70;;
16031;SDS011;8120;48.308;8.914;2022-08-19T13:35:43;29.67;;;25.17;;
16031;SDS011;8120;48.308;8.914;2022-08-19T13:38:14;31.80;;;26.47;;
16031;SDS011;8120;48.308;8.914;2022-08-19T13:40:43;31.53;;;25.03;;
16031;SDS011;8120;48.308;8.914;2022-08-19T13:43:12;30.80;;;26.27;;
16031;SDS011;8120;48.308;8.914;2022-08-19T13:45:48;30.27;;;27.07;;
16031;SDS011;8120;48.308;8.914;2022-08-19T13:48:23;29.37;;;26.17;;
16031;SDS011;8120;48.308;8.914;2022-08-19T13:50:52;30.47;;;26.53;;
16031;SDS011;8120;48.308;8.914;2022-08-19T13:53:20;29.80;;;24.97;;
16031;SDS011;8120;48.308;8.914;2022-08-19T13:55:48;32.07;;;27.07;;
16031;SDS011;8120;48.308;8.914;2022-08-19T13:58:18;30.80;;;25.40;;
16031;SDS011;8120;48.308;8.914;2022-08-19T14:00:46;34.73;;;26.40;;
16031;SDS011;8120;48.308;8.914;2022-08-19T14:03:14;30.07;;;25.40;;
16031;SDS011;8120;48.308;8.914;2022-08-19T14:05:44;30.80;;;27.20;;
16031;SDS011;8120;48.308;8.914;2022-08-19T14:08:12;30.30;;;26.23;;
16031;SDS011;8120;48.308;8.914;2022-08-19T14:10:40;31.23;;;27.90;;
16031;SDS011;8120;48.308;8.914;2022-08-19T14:13:12;31.40;;;27.80;;
16031;SDS011;8120;48.308;8.914;2022-08-19T14:15:42;33.67;;;27.67;;
16031;SDS011;8120;48.308;8.914;2022-08-19T14:18:10;31.53;;;27.63;;
16031;SDS011;8120;48.308;8.914;2022-08-19T14:20:38;31.53;;;26.93;;
16031;SDS011;8120;48.308;8.914;2022-08-19T14:23:08;30.00;;;26.47;;
16031;SDS011;8120;48.308;8.914;2022-08-19T14:25:36;28.90;;;25.63;;
16031;SDS011;8120;48.308;8.914;2022-08-19T14:28:04;30.87;;;26.43;;
16031;SDS011;8120;48.308;8.914;2022-08-19T14:30:34;29.30;;;26.20;;
16031;SDS011;8120;48.308;8.914;2022-08-19T14:33:04;28.00;;;24.77;;
16031;SDS011;8120;48.308;8.914;2022-08-19T14:35:34;26.97;;;24.07;;
16031;SDS011;8120;48.308;8.914;2022-08-19T14:38:03;27.57;;;24.53;;
16031;SDS011;8120;48.308;8.914;2022-08-19T14:40:33;26.77;;;23.70;;
16031;SDS011;8120;48.308;8.914;2022-08-19T14:43:02;26.13;;;23.47;;
16031;SDS011;8120;48.308;8.914;2022-08-19T14:45:31;24.80;;;22.13;;
16031;SDS011;8120;48.308;8.914;2022-08-19T14:48:02;24.40;;;21.80;;
16031;SDS011;8120;48.308;8.914;2022-08-19T14:50:30;24.50;;;21.67;;
16031;SDS011;8120;48.308;8.914;2022-08-19T14:52:59;25.60;;;22.63;;
16031;SDS011;8120;48.308;8.914;2022-08-19T14:55:41;24.93;;;22.43;;
16031;SDS011;8120;48.308;8.914;2022-08-19T14:58:10;25.27;;;22.67;;
16031;SDS011;8120;48.308;8.914;2022-08-19T15:00:55;25.77;;;23.13;;
16031;SDS011;8120;48.308;8.914;2022-08-19T15:03:25;25.83;;;23.07;;
16031;SDS011;8120;48.308;8.914;2022-08-19T15:05:53;24.73;;;22.07;;
16031;SDS011;8120;48.308;8.914;2022-08-19T15:08:22;24.33;;;21.73;;